createdAt,value
2019-05-01T00:03:06.971Z,65.10
2019-05-01T00:06:11.741Z,65.10
2019-05-01T00:09:16.793Z,65.30
2019-05-01T00:12:21.289Z,65.10
2019-05-01T00:15:28.642Z,64.40
2019-05-01T00:18:32.808Z,64.90
2019-05-01T00:21:37.117Z,64.60
2019-05-01T00:24:41.381Z,65.60
2019-05-01T00:27:45.614Z,67.10
2019-05-01T00:30:49.827Z,67.20
2019-05-01T00:33:54.052Z,66.80
2019-05-01T00:36:58.271Z,65.50
2019-05-01T00:40:02.761Z,64.70
2019-05-01T00:43:07.028Z,64.50
2019-05-01T00:46:11.310Z,64.40
2019-05-01T00:49:15.617Z,64.50
2019-05-01T00:52:19.989Z,64.60
2019-05-01T00:55:58.396Z,65.00
2019-05-01T00:59:10.790Z,64.90
2019-05-01T01:02:35.451Z,65.30
2019-05-01T01:05:39.799Z,64.90
2019-05-01T01:08:44.023Z,65.20
2019-05-01T01:11:48.608Z,65.40
2019-05-01T01:14:52.795Z,66.00
2019-05-01T01:17:57.133Z,65.40
2019-05-01T01:21:01.402Z,64.70
2019-05-01T01:24:05.866Z,63.80
2019-05-01T01:27:10.134Z,63.60
2019-05-01T01:30:14.944Z,64.20
2019-05-01T01:33:19.432Z,64.50
2019-05-01T01:36:23.731Z,64.60
2019-05-01T01:39:27.904Z,64.60
2019-05-01T01:42:32.498Z,65.00
2019-05-01T01:45:45.283Z,65.10
2019-05-01T01:48:48.657Z,65.10
2019-05-01T01:51:52.958Z,64.80
2019-05-01T01:54:57.366Z,65.30
2019-05-01T01:58:01.566Z,66.00
2019-05-01T02:01:28.009Z,66.30
2019-05-01T02:04:46.070Z,65.80
2019-05-01T02:07:50.373Z,65.30
2019-05-01T02:10:54.766Z,66.10
2019-05-01T02:13:59.153Z,66.20
2019-05-01T02:17:03.422Z,66.70
2019-05-01T02:20:08.659Z,66.60
2019-05-01T02:23:12.874Z,65.60
2019-05-01T02:26:19.718Z,64.70
2019-05-01T02:29:30.182Z,64.70
2019-05-01T02:32:35.443Z,64.90
2019-05-01T02:35:39.944Z,65.10
2019-05-01T02:38:47.146Z,65.30
2019-05-01T02:41:52.963Z,64.40
2019-05-01T02:44:59.266Z,63.80
2019-05-01T02:48:04.671Z,64.10
2019-05-01T02:51:10.590Z,64.20
2019-05-01T02:54:17.637Z,64.50
2019-05-01T02:57:24.623Z,65.00
2019-05-01T03:00:29.395Z,65.20
2019-05-01T03:03:33.718Z,66.00
2019-05-01T03:06:38.771Z,66.10
2019-05-01T03:09:43.609Z,65.70
2019-05-01T03:12:50.125Z,65.90
2019-05-01T03:15:54.849Z,66.00
2019-05-01T03:19:01.397Z,65.00
2019-05-01T03:22:12.009Z,64.30
2019-05-01T03:25:16.621Z,64.50
2019-05-01T03:28:21.217Z,64.20
2019-05-01T03:31:25.481Z,64.40
2019-05-01T03:34:29.722Z,64.40
2019-05-01T03:37:34.295Z,63.90
2019-05-01T03:40:38.743Z,64.50
2019-05-01T03:43:43.018Z,64.60
2019-05-01T03:46:48.116Z,65.00
2019-05-01T03:49:52.483Z,65.20
2019-05-01T03:52:56.742Z,64.60
2019-05-01T03:56:01.613Z,65.40
2019-05-01T03:59:06.027Z,65.30
2019-05-01T04:02:33.026Z,64.70
2019-05-01T04:05:24.731Z,65.10
2019-05-01T04:08:29.246Z,64.40
2019-05-01T04:11:33.678Z,64.60
2019-05-01T04:14:39.393Z,65.20
2019-05-01T04:18:04.653Z,65.20
2019-05-01T04:21:09.984Z,65.40
2019-05-01T04:24:14.499Z,65.90
2019-05-01T04:27:26.958Z,67.00
2019-05-01T04:30:50.711Z,67.90
2019-05-01T04:33:56.920Z,68.30
2019-05-01T04:37:03.389Z,68.30
2019-05-01T04:40:07.836Z,68.00
2019-05-01T04:43:14.935Z,67.20
2019-05-01T04:46:19.577Z,68.10
2019-05-01T04:49:23.888Z,68.10
2019-05-01T04:52:28.176Z,68.20
2019-05-01T04:55:33.138Z,69.10
2019-05-01T04:58:56.397Z,68.30
2019-05-01T05:02:03.017Z,67.30
2019-05-01T05:05:08.043Z,69.60
2019-05-01T05:08:12.506Z,69.10
2019-05-01T05:11:22.595Z,69.20
2019-05-01T05:14:31.507Z,69.60
2019-05-01T05:17:36.387Z,70.50
2019-05-01T05:20:41.219Z,70.60
2019-05-01T05:23:45.676Z,70.60
2019-05-01T05:26:51.008Z,71.00
2019-05-01T05:29:57.405Z,71.60
2019-05-01T05:33:17.196Z,70.50
2019-05-01T05:36:12.019Z,69.60
2019-05-01T05:39:27.378Z,69.70
2019-05-01T05:42:31.789Z,69.90
2019-05-01T05:45:36.117Z,70.90
2019-05-01T05:48:40.775Z,71.60
2019-05-01T05:52:15.866Z,71.30
2019-05-01T05:55:47.544Z,71.20
2019-05-01T05:58:57.641Z,69.90
2019-05-01T06:02:22.293Z,69.30
2019-05-01T06:05:48.928Z,70.00
2019-05-01T06:08:56.648Z,69.90
2019-05-01T06:12:14.267Z,70.30
2019-05-01T06:15:41.193Z,69.90
2019-05-01T06:18:53.864Z,70.40
2019-05-01T06:22:11.618Z,70.70
2019-05-01T06:25:24.828Z,70.10
2019-05-01T06:28:29.660Z,70.00
2019-05-01T06:31:35.497Z,70.30
2019-05-01T06:34:40.068Z,71.10
2019-05-01T06:38:12.824Z,70.80
2019-05-01T06:41:19.150Z,71.70
2019-05-01T06:44:44.218Z,71.50
2019-05-01T06:47:52.635Z,70.30
2019-05-01T06:51:19.114Z,70.60
2019-05-01T06:54:26.081Z,71.10
2019-05-01T06:57:31.142Z,71.60
2019-05-01T07:00:39.100Z,70.90
2019-05-01T07:03:46.934Z,70.10
2019-05-01T07:06:49.804Z,71.30
2019-05-01T07:09:56.440Z,71.10
2019-05-01T07:13:04.980Z,71.30
2019-05-01T07:16:08.950Z,71.30
2019-05-01T07:19:13.794Z,71.60
2019-05-01T07:22:18.837Z,71.40
2019-05-01T07:25:23.086Z,71.60
2019-05-01T07:28:34.044Z,70.40
2019-05-01T07:31:35.112Z,70.00
2019-05-01T07:34:39.799Z,70.00
2019-05-01T07:37:44.465Z,70.40
2019-05-01T07:40:49.358Z,70.30
2019-05-01T07:44:13.270Z,70.10
2019-05-01T07:47:39.645Z,69.40
2019-05-01T07:50:43.910Z,69.10
2019-05-01T07:53:49.032Z,68.90
2019-05-01T07:56:53.948Z,68.60
2019-05-01T08:00:03.568Z,68.60
2019-05-01T08:03:07.289Z,67.30
2019-05-01T08:06:10.895Z,68.30
2019-05-01T08:09:16.279Z,68.20
2019-05-01T08:12:24.065Z,67.80
2019-05-01T08:15:30.388Z,68.90
2019-05-01T08:18:50.290Z,69.10
2019-05-01T08:22:01.703Z,67.70
2019-05-01T08:25:07.409Z,68.70
2019-05-01T08:28:23.006Z,68.20
2019-05-01T08:31:33.688Z,68.20
2019-05-01T08:34:48.503Z,68.80
2019-05-01T08:37:44.279Z,67.60
2019-05-01T08:40:50.816Z,68.30
2019-05-01T08:43:55.955Z,68.00
2019-05-01T08:47:25.883Z,68.00
2019-05-01T08:50:29.626Z,67.40
2019-05-01T08:53:33.922Z,67.30
2019-05-01T08:56:38.196Z,67.60
2019-05-01T08:59:42.548Z,67.20
2019-05-01T09:02:46.905Z,67.20
2019-05-01T09:05:52.213Z,66.60
2019-05-01T09:08:57.438Z,67.50
2019-05-01T09:12:01.796Z,67.40
2019-05-01T09:15:07.158Z,67.30
2019-05-01T09:18:12.783Z,67.20
2019-05-01T09:21:17.183Z,66.00
2019-05-01T09:24:23.133Z,66.10
2019-05-01T09:27:46.812Z,66.50
2019-05-01T09:31:01.585Z,66.80
2019-05-01T09:34:01.036Z,66.10
2019-05-01T09:37:05.887Z,66.50
2019-05-01T09:40:10.567Z,66.60
2019-05-01T09:43:14.785Z,66.40
2019-05-01T09:46:19.123Z,67.00
2019-05-01T09:49:23.406Z,65.70
2019-05-01T09:52:49.862Z,66.10
2019-05-01T09:56:07.781Z,65.30
2019-05-01T09:59:12.685Z,65.20
2019-05-01T10:02:16.751Z,65.90
2019-05-01T10:05:28.705Z,65.60
2019-05-01T10:08:27.185Z,65.90
2019-05-01T10:11:31.609Z,65.80
2019-05-01T10:14:36.358Z,65.90
2019-05-01T10:17:41.827Z,64.40
2019-05-01T10:20:46.123Z,65.60
2019-05-01T10:23:51.671Z,66.50
2019-05-01T10:27:00.202Z,64.80
2019-05-01T10:31:00.741Z,65.30
2019-05-01T10:34:15.753Z,64.80
2019-05-01T10:37:20.256Z,64.80
2019-05-01T10:40:27.054Z,65.00
2019-05-01T10:43:30.604Z,65.10
2019-05-01T10:46:34.870Z,64.70
2019-05-01T10:49:39.107Z,64.90
2019-05-01T10:52:43.386Z,64.20
2019-05-01T10:55:47.718Z,63.60
2019-05-01T10:58:52.135Z,63.50
2019-05-01T11:01:59.055Z,63.30
2019-05-01T11:05:03.303Z,63.30
2019-05-01T11:08:07.645Z,63.10
2019-05-01T11:11:11.959Z,63.30
2019-05-01T11:14:16.377Z,63.50
2019-05-01T11:17:20.766Z,62.60
2019-05-01T11:20:25.000Z,62.80
2019-05-01T11:23:29.383Z,63.20
2019-05-01T11:29:38.516Z,61.60
2019-05-01T11:32:55.775Z,63.10
2019-05-01T11:36:19.095Z,62.80
2019-05-01T11:39:35.834Z,61.50
2019-05-01T11:42:39.252Z,61.60
2019-05-01T11:45:43.548Z,62.60
2019-05-01T11:48:48.044Z,62.70
2019-05-01T11:51:52.248Z,62.70
2019-05-01T11:54:56.513Z,61.30
2019-05-01T11:58:00.780Z,62.10
2019-05-01T12:01:06.141Z,62.80
2019-05-01T12:04:10.366Z,61.50
2019-05-01T12:07:14.636Z,61.80
2019-05-01T12:10:19.995Z,61.60
2019-05-01T12:13:24.290Z,62.20
2019-05-01T12:16:46.135Z,60.80
2019-05-01T12:19:50.576Z,61.50
2019-05-01T12:22:54.873Z,61.60
2019-05-01T12:26:00.667Z,61.40
2019-05-01T12:29:04.887Z,61.20
2019-05-01T12:32:09.209Z,60.30
2019-05-01T12:35:13.394Z,61.00
2019-05-01T12:38:17.690Z,61.90
2019-05-01T12:41:53.236Z,62.30
2019-05-01T12:44:57.634Z,61.30
2019-05-01T12:48:04.775Z,60.20
2019-05-01T12:51:09.578Z,60.50
2019-05-01T12:54:24.038Z,61.00
2019-05-01T12:57:28.358Z,60.70
2019-05-01T13:00:41.728Z,60.10
2019-05-01T13:03:46.078Z,61.10
2019-05-01T13:06:53.279Z,59.80
2019-05-01T13:09:57.537Z,60.60
2019-05-01T13:13:01.731Z,59.40
2019-05-01T13:16:06.202Z,58.40
2019-05-01T13:19:10.497Z,59.50
2019-05-01T13:22:14.800Z,58.80
2019-05-01T13:25:19.069Z,58.60
2019-05-01T13:28:40.032Z,58.00
2019-05-01T13:31:48.466Z,58.00
2019-05-01T13:34:52.769Z,58.50
2019-05-01T13:37:57.048Z,59.20
2019-05-01T13:41:01.310Z,59.00
2019-05-01T13:44:05.601Z,58.60
2019-05-01T13:47:09.873Z,59.30
2019-05-01T13:50:14.537Z,58.80
2019-05-01T13:53:18.876Z,58.80
2019-05-01T13:56:23.114Z,59.60
2019-05-01T13:59:27.343Z,58.80
2019-05-01T14:02:31.642Z,58.50
2019-05-01T14:05:35.875Z,58.70
2019-05-01T14:08:40.222Z,58.40
2019-05-01T14:11:44.645Z,58.10
2019-05-01T14:14:48.941Z,57.00
2019-05-01T14:17:53.202Z,56.60
2019-05-01T14:21:19.504Z,57.00
2019-05-01T14:24:36.903Z,56.10
2019-05-01T14:27:41.401Z,56.90
2019-05-01T14:30:45.816Z,57.70
2019-05-01T14:33:50.010Z,57.30
2019-05-01T14:36:54.321Z,55.20
2019-05-01T14:39:58.643Z,55.00
2019-05-01T14:43:02.954Z,56.10
2019-05-01T14:46:07.260Z,55.90
2019-05-01T14:49:11.599Z,55.70
2019-05-01T14:52:15.993Z,55.70
2019-05-01T14:55:20.627Z,56.30
2019-05-01T14:58:25.098Z,55.60
2019-05-01T15:01:29.359Z,55.50
2019-05-01T15:04:34.229Z,55.30
2019-05-01T15:07:43.616Z,54.10
2019-05-01T15:10:44.502Z,54.00
2019-05-01T15:14:03.638Z,54.30
2019-05-01T15:17:13.458Z,52.80
2019-05-01T15:20:17.902Z,52.30
2019-05-01T15:23:22.150Z,54.00
2019-05-01T15:26:26.500Z,54.70
2019-05-01T15:29:30.929Z,55.50
2019-05-01T15:32:35.179Z,55.80
2019-05-01T15:35:39.499Z,54.60
2019-05-01T15:38:43.777Z,56.00
2019-05-01T15:41:56.085Z,54.50
2019-05-01T15:45:00.489Z,55.30
2019-05-01T15:48:04.881Z,55.50
2019-05-01T15:51:09.227Z,54.80
2019-05-01T15:54:13.458Z,54.60
2019-05-01T15:58:21.907Z,54.00
2019-05-01T16:01:26.238Z,54.80
2019-05-01T16:04:30.659Z,56.00
2019-05-01T16:07:34.939Z,55.70
2019-05-01T16:10:47.010Z,54.70
2019-05-01T16:13:51.316Z,55.20
2019-05-01T16:16:55.725Z,55.40
2019-05-01T16:20:00.017Z,55.90
2019-05-01T16:23:04.490Z,55.70
2019-05-01T16:26:09.787Z,56.30
2019-05-01T16:29:14.292Z,55.70
2019-05-01T16:32:18.631Z,56.80
2019-05-01T16:35:23.336Z,56.50
2019-05-01T16:38:48.866Z,55.70
2019-05-01T16:41:53.401Z,56.70
2019-05-01T16:44:57.691Z,56.80
2019-05-01T16:48:02.090Z,56.60
2019-05-01T16:51:06.475Z,56.70
2019-05-01T16:54:10.894Z,56.20
2019-05-01T16:57:15.562Z,56.40
2019-05-01T17:00:23.675Z,56.50
2019-05-01T17:03:47.258Z,56.50
2019-05-01T17:07:15.868Z,56.70
2019-05-01T17:10:25.225Z,56.50
2019-05-01T17:13:31.687Z,56.70
2019-05-01T17:16:36.072Z,57.20
2019-05-01T17:19:40.458Z,56.70
2019-05-01T17:22:46.242Z,57.00
2019-05-01T17:25:51.134Z,56.90
2019-05-01T17:28:55.638Z,57.10
2019-05-01T17:32:00.242Z,56.80
2019-05-01T17:35:06.692Z,57.40
2019-05-01T17:38:10.982Z,57.30
2019-05-01T17:41:15.274Z,57.20
2019-05-01T17:44:20.104Z,58.00
2019-05-01T17:47:27.013Z,57.60
2019-05-01T17:50:31.447Z,57.80
2019-05-01T17:53:35.737Z,57.80
2019-05-01T17:56:40.111Z,58.10
2019-05-01T17:59:46.026Z,57.80
2019-05-01T18:02:58.232Z,58.30
2019-05-01T18:06:23.835Z,58.10
2019-05-01T18:09:28.215Z,58.30
2019-05-01T18:12:32.753Z,59.00
2019-05-01T18:15:37.129Z,59.10
2019-05-01T18:18:41.483Z,59.10
2019-05-01T18:21:51.781Z,59.50
2019-05-01T18:25:17.911Z,59.20
2019-05-01T18:28:34.379Z,59.30
2019-05-01T18:31:38.719Z,59.40
2019-05-01T18:34:43.365Z,59.60
2019-05-01T18:37:55.635Z,59.70
2019-05-01T18:41:06.267Z,59.80
2019-05-01T18:44:11.429Z,60.10
2019-05-01T18:47:16.093Z,60.30
2019-05-01T18:50:20.524Z,60.50
2019-05-01T18:53:24.964Z,61.20
2019-05-01T18:56:29.422Z,62.10
2019-05-01T18:59:33.875Z,62.10
2019-05-01T19:02:39.013Z,62.00
2019-05-01T19:05:47.008Z,62.00
2019-05-01T19:08:50.018Z,62.40
2019-05-01T19:11:54.724Z,62.00
2019-05-01T19:15:00.295Z,61.90
2019-05-01T19:18:05.574Z,61.90
2019-05-01T19:21:10.322Z,62.70
2019-05-01T19:24:14.951Z,63.30
2019-05-01T19:27:20.856Z,63.40
2019-05-01T19:30:25.397Z,63.60
2019-05-01T19:33:29.751Z,63.50
2019-05-01T19:36:34.170Z,63.10
2019-05-01T19:39:43.841Z,63.40
2019-05-01T19:42:44.796Z,64.20
2019-05-01T19:45:49.019Z,64.40
2019-05-01T19:48:53.404Z,64.60
2019-05-01T19:52:00.597Z,65.00
2019-05-01T19:55:06.437Z,64.60
2019-05-01T19:58:10.419Z,64.90
2019-05-01T20:01:14.775Z,65.20
2019-05-01T20:04:19.041Z,65.00
2019-05-01T20:07:23.531Z,65.40
2019-05-01T20:10:27.961Z,65.20
2019-05-01T20:13:32.257Z,64.30
2019-05-01T20:16:36.597Z,64.90
2019-05-01T20:19:40.940Z,64.80
2019-05-01T20:22:48.088Z,65.10
2019-05-01T20:25:55.815Z,64.70
2019-05-01T20:29:00.262Z,64.60
2019-05-01T20:32:03.548Z,64.50
2019-05-01T20:35:08.008Z,64.10
2019-05-01T20:38:15.226Z,64.70
2019-05-01T20:41:19.512Z,64.40
2019-05-01T20:44:25.842Z,64.20
2019-05-01T20:47:35.216Z,64.60
2019-05-01T20:50:35.871Z,65.10
2019-05-01T20:53:40.221Z,65.40
2019-05-01T20:56:53.319Z,65.30
2019-05-01T20:59:57.671Z,65.40
2019-05-01T21:03:02.080Z,64.90
2019-05-01T21:06:28.001Z,64.60
2019-05-01T21:09:46.685Z,64.50
2019-05-01T21:12:41.042Z,65.00
2019-05-01T21:15:47.244Z,63.80
2019-05-01T21:18:51.484Z,63.70
2019-05-01T21:21:55.741Z,63.20
2019-05-01T21:24:59.969Z,62.90
2019-05-01T21:28:04.417Z,64.30
2019-05-01T21:31:08.700Z,63.30
2019-05-01T21:34:14.525Z,63.40
2019-05-01T21:37:19.105Z,63.20
2019-05-01T21:40:23.427Z,63.30
2019-05-01T21:43:27.847Z,63.10
2019-05-01T21:46:34.084Z,63.00
2019-05-01T21:49:38.340Z,63.20
2019-05-01T21:52:43.736Z,63.60
2019-05-01T21:55:48.119Z,62.90
2019-05-01T21:58:52.439Z,63.20
2019-05-01T22:01:56.759Z,62.80
2019-05-01T22:05:03.847Z,63.00
2019-05-01T22:08:07.171Z,63.10
2019-05-01T22:11:11.614Z,63.10
2019-05-01T22:14:31.071Z,62.80
2019-05-01T22:17:54.911Z,63.00
2019-05-01T22:21:09.682Z,63.20
2019-05-01T22:24:27.828Z,63.50
2019-05-01T22:27:36.900Z,63.40
2019-05-01T22:31:06.253Z,63.60
2019-05-01T22:34:29.622Z,63.50
2019-05-01T22:37:37.050Z,63.50
2019-05-01T22:41:05.978Z,63.60
2019-05-01T22:44:01.406Z,63.70
2019-05-01T22:47:05.713Z,64.20
2019-05-01T22:50:11.975Z,63.50
2019-05-01T22:53:16.256Z,63.50
2019-05-01T22:56:20.658Z,63.40
2019-05-01T22:59:24.948Z,63.20
2019-05-01T23:02:35.892Z,63.90
2019-05-01T23:05:40.277Z,64.50
2019-05-01T23:08:47.608Z,64.40
2019-05-01T23:11:51.921Z,64.40
2019-05-01T23:14:56.410Z,64.20
2019-05-01T23:18:00.849Z,64.10
2019-05-01T23:21:05.326Z,64.30
2019-05-01T23:24:09.678Z,64.70
2019-05-01T23:27:14.013Z,64.20
2019-05-01T23:30:21.033Z,64.40
2019-05-01T23:33:25.289Z,64.30
2019-05-01T23:36:29.648Z,64.50
2019-05-01T23:39:39.683Z,65.20
2019-05-01T23:42:43.340Z,65.20
2019-05-01T23:45:45.855Z,65.30
2019-05-01T23:48:50.078Z,66.00
2019-05-01T23:51:54.390Z,66.90
2019-05-01T23:54:58.666Z,67.30
2019-05-01T23:58:02.933Z,67.50
